Hazelwood, Missouri
Current Conditions -  °F | °C
As of 11:51 AM on Saturday 20 Dec 2014 (Local Time) from KSTL Reporting Station
Haze Haze  
Wind Chill: 41°   Ceiling: 3200
Heat Index: 41°   Visibility: 6mi
Dew Point: 32°   Wind: 3mph
Humidity: 70%   Direction: 150°SSE
Pressure: 30.25"   Gusts: NA
Location:  38.79°N, 90.35°W
Report Text: KSTL 201751Z 15003KT 6SM HZ FEW016 OVC032 05/00 A3025 RMK AO2 SLP252 T00500000 10050 20022 58010
Loading
Personal Weather Stations






























Interactive Weather Map New forecast layout! Learn more

10-Day Weather Forecast

Advertisements
Track Severe Weather on mobile